createdAt,value
2022-11-26T00:00:56.321Z,97467.69
2022-11-26T00:03:24.391Z,97479.72
2022-11-26T00:05:54.842Z,97484.63
2022-11-26T00:08:26.934Z,97492.59
2022-11-26T00:10:54.964Z,97492.22
2022-11-26T00:13:25.740Z,97496.81
2022-11-26T00:15:54.654Z,97493.66
2022-11-26T00:18:23.498Z,97503.56
2022-11-26T00:20:55.634Z,97503.19
2022-11-26T00:23:24.436Z,97511.13
2022-11-26T00:25:55.601Z,97514.53
2022-11-26T00:28:29.400Z,97514.25
2022-11-26T00:30:59.553Z,97505.94
2022-11-26T00:33:28.709Z,97508.03
2022-11-26T00:35:58.739Z,97509.16
2022-11-26T00:38:27.394Z,97508.63
2022-11-26T00:40:55.203Z,97504.28
2022-11-26T00:43:23.093Z,97498.88
2022-11-26T00:45:52.220Z,97497.69
2022-11-26T00:48:20.247Z,97501.97
2022-11-26T00:50:50.930Z,97505.75
2022-11-26T00:53:22.245Z,97500.81
2022-11-26T00:55:51.213Z,97507.88
2022-11-26T00:58:27.981Z,97515.19
2022-11-26T01:00:59.316Z,97519.31
2022-11-26T01:03:27.508Z,97518.84
2022-11-26T01:05:58.331Z,97521.78
2022-11-26T01:08:31.218Z,97522.97
2022-11-26T01:10:59.638Z,97535.16
2022-11-26T01:13:27.918Z,97531.47
2022-11-26T01:15:58.318Z,97541.75
2022-11-26T01:18:26.467Z,97539.00
2022-11-26T01:20:54.195Z,97547.28
2022-11-26T01:23:22.821Z,97552.25
2022-11-26T01:25:50.570Z,97556.06
2022-11-26T01:28:20.286Z,97560.38
2022-11-26T01:30:48.108Z,97554.59
2022-11-26T01:33:17.248Z,97570.84
2022-11-26T01:35:45.036Z,97564.13
2022-11-26T01:38:15.097Z,97566.63
2022-11-26T01:41:02.911Z,97565.31
2022-11-26T01:43:38.057Z,97569.25
2022-11-26T01:46:15.321Z,97567.47
2022-11-26T01:48:45.135Z,97566.38
2022-11-26T01:51:14.359Z,97579.00
2022-11-26T01:53:46.853Z,97580.84
2022-11-26T01:56:20.171Z,97583.69
2022-11-26T01:58:51.564Z,97579.00
2022-11-26T02:01:20.347Z,97583.97
2022-11-26T02:03:58.270Z,97593.59
2022-11-26T02:06:31.205Z,97590.28
2022-11-26T02:09:00.567Z,97597.59
2022-11-26T02:11:28.885Z,97593.53
2022-11-26T02:14:01.670Z,97599.03
2022-11-26T02:16:46.357Z,97601.03
2022-11-26T02:19:43.044Z,97603.41
2022-11-26T02:22:22.893Z,97608.34
2022-11-26T02:24:57.428Z,97609.66
2022-11-26T02:28:09.335Z,97609.94
2022-11-26T02:30:42.980Z,97621.56
2022-11-26T02:33:17.074Z,97625.88
2022-11-26T02:35:48.878Z,97627.53
2022-11-26T02:38:20.526Z,97630.13
2022-11-26T02:40:48.569Z,97635.72
2022-11-26T02:43:17.755Z,97639.38
2022-11-26T02:45:50.435Z,97646.72
2022-11-26T02:48:23.274Z,97646.00
2022-11-26T02:50:56.858Z,97649.28
2022-11-26T02:53:27.816Z,97655.78
2022-11-26T02:56:03.341Z,97665.22
2022-11-26T02:58:33.205Z,97669.56
2022-11-26T03:01:07.231Z,97674.34
2022-11-26T03:03:38.654Z,97679.28
2022-11-26T03:06:10.971Z,97683.41
2022-11-26T03:08:39.296Z,97680.22
2022-11-26T03:11:07.835Z,97674.25
2022-11-26T03:13:35.709Z,97677.41
2022-11-26T03:16:05.408Z,97684.19
2022-11-26T03:18:33.205Z,97684.88
2022-11-26T03:21:01.830Z,97680.09
2022-11-26T03:23:29.576Z,97681.75
2022-11-26T03:25:57.339Z,97682.75
2022-11-26T03:28:25.124Z,97674.34
2022-11-26T03:30:52.960Z,97677.81
2022-11-26T03:33:22.097Z,97685.25
2022-11-26T03:35:51.421Z,97679.78
2022-11-26T03:38:19.233Z,97679.78
2022-11-26T03:40:47.020Z,97666.81
2022-11-26T03:43:14.791Z,97679.94
2022-11-26T03:45:42.611Z,97671.72
2022-11-26T03:48:10.385Z,97670.53
2022-11-26T03:50:39.532Z,97673.13
2022-11-26T03:53:07.400Z,97678.91
2022-11-26T03:55:35.129Z,97673.03
2022-11-26T03:58:02.871Z,97679.38
2022-11-26T04:00:30.717Z,97690.72
2022-11-26T04:02:58.517Z,97677.59
2022-11-26T04:05:26.281Z,97676.66
2022-11-26T04:07:55.455Z,97654.84
2022-11-26T04:10:23.419Z,97672.56
2022-11-26T04:12:51.240Z,97671.91
2022-11-26T04:15:19.242Z,97668.31
2022-11-26T04:17:47.003Z,97668.50
2022-11-26T04:20:15.334Z,97664.03
2022-11-26T04:22:43.041Z,97671.53
2022-11-26T04:25:12.609Z,97664.75
2022-11-26T04:27:40.594Z,97668.78
2022-11-26T04:30:09.671Z,97667.41
2022-11-26T04:32:39.857Z,97663.47
2022-11-26T04:35:08.860Z,97667.41
2022-11-26T04:37:36.734Z,97666.78
2022-11-26T04:40:04.833Z,97663.13
2022-11-26T04:42:34.323Z,97666.16
2022-11-26T04:45:02.324Z,97668.00
2022-11-26T04:47:30.152Z,97664.19
2022-11-26T04:49:57.982Z,97671.19
2022-11-26T04:52:26.011Z,97669.34
2022-11-26T04:54:53.775Z,97668.19
2022-11-26T04:57:21.547Z,97669.22
2022-11-26T04:59:50.697Z,97669.38
2022-11-26T05:02:18.616Z,97673.19
2022-11-26T05:04:46.659Z,97675.84
2022-11-26T05:07:14.558Z,97683.31
2022-11-26T05:09:42.595Z,97687.63
2022-11-26T05:12:11.329Z,97682.13
2022-11-26T05:14:39.311Z,97681.47
2022-11-26T05:17:08.709Z,97688.44
2022-11-26T05:19:36.475Z,97690.78
2022-11-26T05:22:04.221Z,97697.38
2022-11-26T05:24:32.202Z,97699.03
2022-11-26T05:26:59.992Z,97696.06
2022-11-26T05:29:27.921Z,97697.38
2022-11-26T05:31:55.863Z,97701.66
2022-11-26T05:34:25.067Z,97706.97
2022-11-26T05:36:52.845Z,97711.59
2022-11-26T05:39:20.658Z,97711.91
2022-11-26T05:41:48.460Z,97721.47
2022-11-26T05:44:16.262Z,97714.88
2022-11-26T05:46:44.270Z,97718.69
2022-11-26T05:49:12.232Z,97725.66
2022-11-26T05:51:41.321Z,97722.84
2022-11-26T05:54:12.624Z,97726.13
2022-11-26T05:56:40.333Z,97725.81
2022-11-26T05:59:08.112Z,97730.47
2022-11-26T06:01:35.974Z,97732.13
2022-11-26T06:04:04.059Z,97736.44
2022-11-26T06:06:31.970Z,97735.25
2022-11-26T06:09:01.068Z,97737.09
2022-11-26T06:11:28.827Z,97641.06
2022-11-26T06:13:56.892Z,97735.78
2022-11-26T06:16:24.709Z,97730.00
2022-11-26T06:18:52.515Z,97722.19
2022-11-26T06:21:20.256Z,97741.44
2022-11-26T06:23:55.836Z,97739.75
2022-11-26T06:26:25.361Z,97739.06
2022-11-26T06:28:53.178Z,97758.47
2022-11-26T06:31:21.150Z,97749.53
2022-11-26T06:33:49.113Z,97743.56
2022-11-26T06:36:16.858Z,97738.78
2022-11-26T06:38:44.792Z,97742.91
2022-11-26T06:41:12.490Z,97745.41
2022-11-26T06:43:41.737Z,97733.44
2022-11-26T06:46:11.717Z,97736.44
2022-11-26T06:48:40.478Z,97739.75
2022-11-26T06:51:10.254Z,97738.91
2022-11-26T06:53:38.165Z,97731.63
2022-11-26T06:56:08.327Z,97744.72
2022-11-26T06:58:36.156Z,97751.84
2022-11-26T07:01:10.124Z,97762.13
2022-11-26T07:03:38.298Z,97770.41
2022-11-26T07:06:06.138Z,97768.94
2022-11-26T07:08:33.961Z,97783.47
2022-11-26T07:11:04.109Z,97780.50
2022-11-26T07:13:32.110Z,97788.44
2022-11-26T07:16:03.200Z,97772.38
2022-11-26T07:18:32.741Z,97792.72
2022-11-26T07:21:06.002Z,97749.84
2022-11-26T07:23:33.934Z,97795.38
2022-11-26T07:26:02.541Z,97801.66
2022-11-26T07:28:31.093Z,97799.78
2022-11-26T07:31:02.117Z,97799.16
2022-11-26T07:33:31.903Z,97799.53
2022-11-26T07:36:00.728Z,97802.59
2022-11-26T07:38:28.792Z,97804.56
2022-11-26T07:41:03.311Z,97808.00
2022-11-26T07:43:31.132Z,97819.75
2022-11-26T07:46:02.603Z,97828.72
2022-11-26T07:48:33.367Z,97824.69
2022-11-26T07:51:02.053Z,97824.56
2022-11-26T07:53:30.344Z,97832.63
2022-11-26T07:55:58.067Z,97830.44
2022-11-26T07:58:26.835Z,97818.63
2022-11-26T08:00:55.183Z,97829.22
2022-11-26T08:03:23.028Z,97830.16
2022-11-26T08:05:52.178Z,97827.72
2022-11-26T08:08:19.951Z,97839.19
2022-11-26T08:10:47.798Z,97840.56
2022-11-26T08:13:15.582Z,97835.22
2022-11-26T08:15:43.417Z,97834.66
2022-11-26T08:18:11.877Z,97826.22
2022-11-26T08:20:41.715Z,97821.97
2022-11-26T08:23:10.913Z,97819.59
2022-11-26T08:25:45.140Z,97822.09
2022-11-26T08:28:26.526Z,97825.59
2022-11-26T08:31:04.592Z,97824.91
2022-11-26T08:33:32.893Z,97819.97
2022-11-26T08:36:08.861Z,97817.03
2022-11-26T08:38:38.441Z,97826.56
2022-11-26T08:41:08.881Z,97817.78
2022-11-26T08:44:04.601Z,97815.50
2022-11-26T08:46:26.040Z,97819.06
2022-11-26T08:48:56.275Z,97821.28
2022-11-26T08:51:26.781Z,97825.28
2022-11-26T08:53:55.971Z,97821.81
2022-11-26T08:56:23.974Z,97813.88
2022-11-26T08:58:51.878Z,97821.13
2022-11-26T09:01:22.142Z,97818.28
2022-11-26T09:03:51.745Z,97815.72
2022-11-26T09:06:20.821Z,97820.97
2022-11-26T09:09:07.154Z,97808.53
2022-11-26T09:11:39.303Z,97810.28
2022-11-26T09:14:06.872Z,97818.00
2022-11-26T09:16:35.334Z,97803.75
2022-11-26T09:19:04.567Z,97819.47
2022-11-26T09:21:32.575Z,97810.19
2022-11-26T09:24:00.654Z,97815.78
2022-11-26T09:26:28.444Z,97806.56
2022-11-26T09:28:57.749Z,97822.81
2022-11-26T09:31:25.730Z,97818.16
2022-11-26T09:33:56.069Z,97819.59
2022-11-26T09:36:23.941Z,97826.72
2022-11-26T09:38:55.090Z,97812.09
2022-11-26T09:41:39.199Z,97828.63
2022-11-26T09:44:20.846Z,97835.75
2022-11-26T09:47:14.825Z,97833.22
2022-11-26T09:49:54.416Z,97836.06
2022-11-26T09:52:25.591Z,97831.16
2022-11-26T09:55:01.873Z,97833.34
2022-11-26T09:57:34.900Z,97845.03
2022-11-26T10:00:06.786Z,97841.50
2022-11-26T10:02:35.101Z,97849.84
2022-11-26T10:05:02.952Z,97855.84
2022-11-26T10:07:47.205Z,97856.66
2022-11-26T10:10:20.236Z,97844.75
2022-11-26T10:16:01.841Z,97835.09
2022-11-26T10:18:39.535Z,97833.53
2022-11-26T10:21:26.843Z,97835.25
2022-11-26T10:24:00.543Z,97831.03
2022-11-26T10:26:31.177Z,97828.75
2022-11-26T10:29:15.817Z,97828.13
2022-11-26T10:31:47.788Z,97822.63
2022-11-26T10:34:19.216Z,97817.13
2022-11-26T10:36:49.349Z,97814.66
2022-11-26T10:39:20.556Z,97811.53
2022-11-26T10:41:49.102Z,97806.88
2022-11-26T10:44:30.850Z,97810.53
2022-11-26T10:47:01.270Z,97802.06
2022-11-26T10:49:30.677Z,97793.78
2022-11-26T10:52:02.022Z,97804.19
2022-11-26T10:54:34.331Z,97794.66
2022-11-26T10:57:13.568Z,97795.50
2022-11-26T10:59:48.280Z,97793.78
2022-11-26T11:02:30.421Z,97795.78
2022-11-26T11:05:00.252Z,97797.00
2022-11-26T11:07:41.603Z,97781.50
2022-11-26T11:10:17.422Z,97793.34
2022-11-26T11:12:49.251Z,97798.66
2022-11-26T11:15:23.138Z,97793.31
2022-11-26T11:17:59.889Z,97776.16
2022-11-26T11:20:34.299Z,97775.00
2022-11-26T11:23:19.984Z,97761.88
2022-11-26T11:25:57.710Z,97762.69
2022-11-26T11:28:28.142Z,97756.84
2022-11-26T11:31:03.646Z,97758.31
2022-11-26T11:33:33.311Z,97752.53
2022-11-26T11:36:17.974Z,97750.41
2022-11-26T11:38:50.823Z,97746.47
2022-11-26T11:41:26.194Z,97747.28
2022-11-26T11:44:04.816Z,97748.31
2022-11-26T11:47:21.619Z,97750.41
2022-11-26T11:50:04.226Z,97755.34
2022-11-26T11:52:39.543Z,97757.00
2022-11-26T11:55:20.710Z,97764.00
2022-11-26T11:58:01.929Z,97756.47
2022-11-26T12:00:43.143Z,97752.44
2022-11-26T12:03:50.527Z,97757.56
2022-11-26T12:06:30.688Z,97757.00
2022-11-26T12:09:08.723Z,97752.44
2022-11-26T12:11:48.476Z,97752.34
2022-11-26T12:14:21.838Z,97743.63
2022-11-26T12:16:54.200Z,97748.69
2022-11-26T12:19:30.242Z,97743.53
2022-11-26T12:22:06.881Z,97735.38
2022-11-26T12:24:41.594Z,97738.94
2022-11-26T12:27:21.466Z,97733.59
2022-11-26T12:29:54.670Z,97734.44
2022-11-26T12:32:29.033Z,97734.44
2022-11-26T12:35:01.128Z,97734.53
2022-11-26T12:37:32.044Z,97735.19
2022-11-26T12:40:05.163Z,97732.88
2022-11-26T12:42:41.892Z,97733.78
2022-11-26T12:45:18.800Z,97740.75
2022-11-26T12:47:52.896Z,97744.69
2022-11-26T12:50:28.720Z,97746.78
2022-11-26T12:53:05.110Z,97744.88
2022-11-26T12:55:39.907Z,97747.34
2022-11-26T12:58:13.823Z,97739.81
2022-11-26T13:00:41.891Z,97717.78
2022-11-26T13:03:16.866Z,97735.13
2022-11-26T13:05:55.606Z,97736.75
2022-11-26T13:08:41.100Z,97728.44
2022-11-26T13:11:26.026Z,97737.31
2022-11-26T13:14:02.474Z,97732.00
2022-11-26T13:16:37.860Z,97726.22
2022-11-26T13:19:12.232Z,97736.16
2022-11-26T13:21:51.053Z,97731.84
2022-11-26T13:24:38.925Z,97733.88
2022-11-26T13:27:24.238Z,97727.66
2022-11-26T13:30:10.676Z,97719.56
2022-11-26T13:33:09.964Z,97725.09
2022-11-26T13:36:03.536Z,97717.09
2022-11-26T13:38:38.382Z,97724.69
2022-11-26T13:41:45.016Z,97710.69
2022-11-26T13:44:46.873Z,97708.59
2022-11-26T13:47:18.649Z,97707.06
2022-11-26T13:49:52.144Z,97705.88
2022-11-26T13:52:27.331Z,97707.75
2022-11-26T13:55:02.128Z,97700.81
2022-11-26T13:57:39.751Z,97703.06
2022-11-26T14:00:09.795Z,97705.50
2022-11-26T14:02:47.359Z,97700.91
2022-11-26T14:05:17.026Z,97702.88
2022-11-26T14:07:46.422Z,97693.88
2022-11-26T14:10:44.160Z,97707.78
2022-11-26T14:13:16.115Z,97711.72
2022-11-26T14:15:58.351Z,97702.47
2022-11-26T14:18:44.560Z,97712.81
2022-11-26T14:21:13.321Z,97707.25
2022-11-26T14:23:44.726Z,97700.16
2022-11-26T14:26:19.530Z,97695.75
2022-11-26T14:28:49.645Z,97690.53
2022-11-26T14:31:23.015Z,97705.78
2022-11-26T14:33:53.369Z,97707.44
2022-11-26T14:36:22.470Z,97706.81
2022-11-26T14:39:05.601Z,97699.75
2022-11-26T14:41:51.282Z,97680.22
2022-11-26T14:44:21.800Z,97692.50
2022-11-26T14:46:51.947Z,97692.97
2022-11-26T14:49:30.591Z,97670.03
2022-11-26T14:52:00.172Z,97675.97
2022-11-26T14:54:31.972Z,97676.34
2022-11-26T14:57:05.741Z,97675.88
2022-11-26T14:59:35.070Z,97677.06
2022-11-26T15:02:02.911Z,97680.63
2022-11-26T15:04:34.579Z,97676.44
2022-11-26T15:07:02.453Z,97691.06
2022-11-26T15:09:30.263Z,97688.13
2022-11-26T15:12:05.802Z,97686.47
2022-11-26T15:14:42.666Z,97681.50
2022-11-26T15:17:14.666Z,97680.47
2022-11-26T15:19:43.381Z,97686.81
2022-11-26T15:22:22.020Z,97682.22
2022-11-26T15:24:51.176Z,97682.94
2022-11-26T15:27:29.856Z,97669.34
2022-11-26T15:29:59.030Z,97671.47
2022-11-26T15:32:28.844Z,97671.38
2022-11-26T15:35:00.134Z,97673.38
2022-11-26T15:37:28.287Z,97669.94
2022-11-26T15:40:21.548Z,97677.28
2022-11-26T15:42:50.782Z,97667.41
2022-11-26T15:45:22.697Z,97673.03
2022-11-26T15:47:53.150Z,97666.13
2022-11-26T15:50:30.490Z,97665.22
2022-11-26T15:53:02.082Z,97665.78
2022-11-26T15:55:33.329Z,97672.78
2022-11-26T15:58:03.998Z,97672.56
2022-11-26T16:00:37.729Z,97673.72
2022-11-26T16:03:26.831Z,97669.00
2022-11-26T16:05:56.336Z,97669.72
2022-11-26T16:08:26.631Z,97665.25
2022-11-26T16:10:57.286Z,97663.31
2022-11-26T16:13:28.981Z,97662.84
2022-11-26T16:16:02.175Z,97667.81
2022-11-26T16:18:37.866Z,97670.50
2022-11-26T16:21:08.437Z,97668.94
2022-11-26T16:23:36.788Z,97671.91
2022-11-26T16:26:17.566Z,97678.03
2022-11-26T16:28:46.350Z,97680.38
2022-11-26T16:31:17.013Z,97681.22
2022-11-26T16:33:46.292Z,97675.63
2022-11-26T16:36:20.527Z,97681.72
2022-11-26T16:38:49.029Z,97683.53
2022-11-26T16:41:18.510Z,97677.59
2022-11-26T16:43:46.344Z,97678.81
2022-11-26T16:46:17.493Z,97684.97
2022-11-26T16:48:46.427Z,97680.19
2022-11-26T16:51:14.412Z,97682.38
2022-11-26T16:53:42.603Z,97686.34
2022-11-26T16:56:19.355Z,97685.66
2022-11-26T16:58:47.484Z,97688.69
2022-11-26T17:01:16.747Z,97680.03
2022-11-26T17:03:44.947Z,97678.88
2022-11-26T17:06:15.065Z,97680.38
2022-11-26T17:08:49.132Z,97672.41
2022-11-26T17:11:17.346Z,97680.69
2022-11-26T17:13:45.134Z,97672.25
2022-11-26T17:16:20.755Z,97661.81
2022-11-26T17:18:49.170Z,97683.19
2022-11-26T17:21:17.297Z,97687.03
2022-11-26T17:23:45.078Z,97669.16
2022-11-26T17:26:19.009Z,97687.75
2022-11-26T17:28:47.273Z,97682.09
2022-11-26T17:31:16.819Z,97677.16
2022-11-26T17:33:44.621Z,97673.50
2022-11-26T17:36:17.296Z,97684.22
2022-11-26T17:38:46.075Z,97684.22
2022-11-26T17:41:14.789Z,97689.72
2022-11-26T17:43:43.023Z,97696.88
2022-11-26T17:46:16.782Z,97693.56
2022-11-26T17:48:46.001Z,97696.38
2022-11-26T17:51:14.936Z,97704.19
2022-11-26T17:53:43.806Z,97707.00
2022-11-26T17:56:22.521Z,97698.72
2022-11-26T17:58:50.944Z,97703.66
2022-11-26T18:01:20.421Z,97705.66
2022-11-26T18:03:48.546Z,97695.72
2022-11-26T18:06:17.459Z,97698.72
2022-11-26T18:08:45.760Z,97697.88
2022-11-26T18:11:14.720Z,97684.97
2022-11-26T18:13:45.281Z,97686.78
2022-11-26T18:16:13.134Z,97689.75
2022-11-26T18:18:42.311Z,97689.94
2022-11-26T18:21:10.092Z,97686.75
2022-11-26T18:23:37.883Z,97684.59
2022-11-26T18:26:05.857Z,97685.56
2022-11-26T18:28:33.643Z,97687.38
2022-11-26T18:31:01.507Z,97694.66
2022-11-26T18:33:29.665Z,97694.16
2022-11-26T18:35:58.883Z,97696.97
2022-11-26T18:38:29.042Z,97708.84
2022-11-26T18:41:01.044Z,97700.03
2022-11-26T18:43:30.409Z,97700.16
2022-11-26T18:45:58.483Z,97704.06
2022-11-26T18:48:26.238Z,97699.28
2022-11-26T18:50:58.984Z,97702.56
2022-11-26T18:53:27.806Z,97698.34
2022-11-26T18:55:56.323Z,97693.03
2022-11-26T18:58:25.482Z,97697.91
2022-11-26T19:00:58.344Z,97690.78
2022-11-26T19:03:27.487Z,97694.91
2022-11-26T19:05:55.881Z,97704.69
2022-11-26T19:08:25.031Z,97705.41
2022-11-26T19:10:52.818Z,97707.28
2022-11-26T19:13:20.853Z,97705.63
2022-11-26T19:15:49.038Z,97699.41
2022-11-26T19:18:17.408Z,97690.28
2022-11-26T19:20:49.809Z,97687.97
2022-11-26T19:23:17.800Z,97695.91
2022-11-26T19:25:46.856Z,97703.50
2022-11-26T19:28:14.622Z,97701.56
2022-11-26T19:30:42.349Z,97702.03
2022-11-26T19:33:10.179Z,97709.28
2022-11-26T19:35:39.637Z,97709.28
2022-11-26T19:38:07.501Z,97707.56
2022-11-26T19:40:35.488Z,97704.75
2022-11-26T19:43:05.135Z,97701.72
2022-11-26T19:45:33.041Z,97702.22
2022-11-26T19:48:01.086Z,97684.56
2022-11-26T19:50:28.829Z,97684.56
2022-11-26T19:52:56.581Z,97686.53
2022-11-26T19:55:24.357Z,97685.50
2022-11-26T19:57:52.511Z,97673.19
2022-11-26T20:00:22.316Z,97682.75
2022-11-26T20:02:50.119Z,97672.69
2022-11-26T20:05:18.235Z,97685.75
2022-11-26T20:07:46.247Z,97686.91
2022-11-26T20:10:15.938Z,97683.41
2022-11-26T20:12:43.746Z,97702.22
2022-11-26T20:15:12.612Z,97698.06
2022-11-26T20:17:41.771Z,97698.88
2022-11-26T20:20:10.811Z,97699.94
2022-11-26T20:22:39.152Z,97694.66
2022-11-26T20:25:09.087Z,97690.59
2022-11-26T20:27:36.967Z,97683.97
2022-11-26T20:30:05.834Z,97685.63
2022-11-26T20:32:33.550Z,97686.72
2022-11-26T20:35:02.707Z,97688.03
2022-11-26T20:37:30.568Z,97689.00
2022-11-26T20:39:59.409Z,97687.50
2022-11-26T20:42:27.737Z,97687.97
2022-11-26T20:44:55.526Z,97685.66
2022-11-26T20:47:24.047Z,97696.31
2022-11-26T20:49:51.802Z,97684.69
2022-11-26T20:52:23.590Z,97685.84
2022-11-26T20:54:53.786Z,97682.69
2022-11-26T20:57:23.397Z,97667.28
2022-11-26T20:59:52.181Z,97668.56
2022-11-26T21:02:20.100Z,97668.56
2022-11-26T21:04:47.887Z,97661.81
2022-11-26T21:07:15.678Z,97656.69
2022-11-26T21:09:46.256Z,97639.94
2022-11-26T21:12:14.098Z,97635.31
2022-11-26T21:14:41.938Z,97633.44
2022-11-26T21:17:09.719Z,97629.44
2022-11-26T21:19:37.805Z,97620.88
2022-11-26T21:22:05.845Z,97609.59
2022-11-26T21:24:33.750Z,97615.03
2022-11-26T21:27:02.881Z,97610.97
2022-11-26T21:29:30.690Z,97603.59
2022-11-26T21:31:58.454Z,97604.88
2022-11-26T21:34:26.476Z,97614.06
2022-11-26T21:36:54.299Z,97633.88
2022-11-26T21:39:22.128Z,97635.75
2022-11-26T21:41:49.911Z,97621.16
2022-11-26T21:44:19.083Z,97626.22
2022-11-26T21:46:46.896Z,97644.53
2022-11-26T21:49:14.736Z,97642.97
2022-11-26T21:51:42.551Z,97643.81
2022-11-26T21:54:10.482Z,97648.06
2022-11-26T21:56:38.514Z,97637.97
2022-11-26T21:59:06.232Z,97639.28
2022-11-26T22:01:37.069Z,97656.13
2022-11-26T22:04:07.581Z,97645.94
2022-11-26T22:06:36.079Z,97653.53
2022-11-26T22:09:04.946Z,97650.31
2022-11-26T22:11:35.733Z,97654.28
2022-11-26T22:14:03.744Z,97651.91
2022-11-26T22:16:32.015Z,97660.44
2022-11-26T22:19:02.444Z,97652.50
2022-11-26T22:21:32.463Z,97655.44
2022-11-26T22:24:01.475Z,97658.06
2022-11-26T22:26:30.528Z,97660.88
2022-11-26T22:28:58.455Z,97639.03
2022-11-26T22:31:27.776Z,97682.94
2022-11-26T22:33:56.939Z,97671.97
2022-11-26T22:36:26.933Z,97690.56
2022-11-26T22:38:54.902Z,97694.59
2022-11-26T22:41:23.441Z,97691.50
2022-11-26T22:43:51.221Z,97693.19
2022-11-26T22:46:20.826Z,97679.09
2022-11-26T22:48:51.161Z,97677.34
2022-11-26T22:51:19.330Z,97669.91
2022-11-26T22:53:52.038Z,97675.63
2022-11-26T22:56:20.692Z,97680.69
2022-11-26T22:58:48.796Z,97672.53
2022-11-26T23:01:20.067Z,97664.38
2022-11-26T23:03:48.200Z,97676.72
2022-11-26T23:06:17.848Z,97678.16
2022-11-26T23:08:46.597Z,97668.69
2022-11-26T23:11:18.459Z,97666.47
2022-11-26T23:13:48.144Z,97678.59
2022-11-26T23:16:16.261Z,97680.13
2022-11-26T23:18:44.201Z,97670.94
2022-11-26T23:21:13.974Z,97659.63
2022-11-26T23:23:42.060Z,97664.53
2022-11-26T23:26:12.976Z,97661.97
2022-11-26T23:28:42.121Z,97661.34
2022-11-26T23:31:15.572Z,97665.16
2022-11-26T23:33:43.898Z,97675.00
2022-11-26T23:36:12.155Z,97675.78
2022-11-26T23:38:40.303Z,97673.06
2022-11-26T23:41:08.688Z,97668.16
2022-11-26T23:43:38.025Z,97665.84
2022-11-26T23:46:10.946Z,97663.25
2022-11-26T23:48:38.814Z,97654.97
2022-11-26T23:51:08.330Z,97650.69
2022-11-26T23:53:37.142Z,97654.03
2022-11-26T23:56:06.696Z,97658.25
2022-11-26T23:58:34.641Z,97654.34
